Time;durP1;ratioP1;P1;durP2;ratioP2;P2;SDS_P1;SDS_P2;PMS_P1;PMS_P2;Temp;Humidity;BMP_temperature;BMP_pressure;BME280_temperature;BME280_humidity;BME280_pressure;Samples;Min_cycle;Max_cycle;Signal;HPM_P1;HPM_P2
2022/03/17 00:02:03;;;;;;;34.72;23.35;;;7.50;99.90;;;;;;4973784;28;20049;-70
2022/03/17 00:04:30;;;;;;;37.45;23.17;;;7.60;99.90;;;;;;4973852;28;20027;-69
2022/03/17 00:06:56;;;;;;;33.08;22.35;;;7.60;99.90;;;;;;4973981;28;20039;-69
2022/03/17 00:09:32;;;;;;;34.25;23.52;;;7.60;99.90;;;;;;4955373;28;20034;-68
2022/03/17 00:12:15;;;;;;;31.15;22.27;;;7.60;99.90;;;;;;4980886;28;20527;-70
2022/03/17 00:14:51;;;;;;;32.40;21.90;;;7.50;99.90;;;;;;4953038;28;20123;-69
2022/03/17 00:17:22;;;;;;;34.70;22.58;;;7.50;99.90;;;;;;4953208;28;20078;-70
2022/03/17 00:19:48;;;;;;;35.10;23.30;;;7.50;99.90;;;;;;4952860;29;20035;-69
2022/03/17 00:22:16;;;;;;;35.30;22.40;;;7.50;99.90;;;;;;4961979;28;20045;-70
2022/03/17 00:24:44;;;;;;;42.33;26.38;;;7.50;99.90;;;;;;4973365;28;20084;-70
2022/03/17 00:27:10;;;;;;;38.80;25.80;;;7.40;99.90;;;;;;4972913;28;20101;-70
2022/03/17 00:29:38;;;;;;;35.58;21.45;;;7.40;99.90;;;;;;4972417;28;20054;-67
2022/03/17 00:32:05;;;;;;;33.05;23.42;;;7.40;99.90;;;;;;4972496;28;20031;-70
2022/03/17 00:34:31;;;;;;;38.92;24.95;;;7.40;99.90;;;;;;4955173;28;20081;-68
2022/03/17 00:36:57;;;;;;;36.60;23.52;;;7.40;99.90;;;;;;4972769;28;20059;-70
2022/03/17 00:39:31;;;;;;;34.53;24.58;;;7.40;99.90;;;;;;4973199;28;20042;-70
2022/03/17 00:41:58;;;;;;;37.92;24.45;;;7.40;99.90;;;;;;4955443;28;20043;-70
2022/03/17 00:44:23;;;;;;;42.88;25.20;;;7.50;99.90;;;;;;4972383;28;20061;-70
2022/03/17 00:46:49;;;;;;;37.83;23.48;;;7.50;99.90;;;;;;4972775;28;20035;-68
2022/03/17 00:49:16;;;;;;;35.90;22.90;;;7.60;99.90;;;;;;4973209;28;20037;-68
2022/03/17 00:51:45;;;;;;;38.40;24.75;;;7.60;99.90;;;;;;4972861;28;20497;-70
2022/03/17 00:54:14;;;;;;;41.35;25.77;;;7.60;99.90;;;;;;4955522;28;20727;-72
2022/03/17 00:56:41;;;;;;;44.53;27.10;;;7.60;99.90;;;;;;4973330;28;20429;-69
2022/03/17 00:59:06;;;;;;;41.38;26.42;;;7.60;99.90;;;;;;4972963;28;20026;-68
2022/03/17 01:01:34;;;;;;;44.60;26.50;;;7.60;99.90;;;;;;4973069;28;20512;-68
2022/03/17 01:04:00;;;;;;;43.00;27.15;;;7.60;99.90;;;;;;4972558;28;20046;-71
2022/03/17 01:06:26;;;;;;;39.08;24.90;;;7.50;99.90;;;;;;4972911;28;20074;-68
2022/03/17 01:08:52;;;;;;;36.67;23.63;;;7.50;99.90;;;;;;4972651;28;20363;-71
2022/03/17 01:11:18;;;;;;;48.55;31.25;;;7.40;99.90;;;;;;4972437;28;20521;-70
2022/03/17 01:13:44;;;;;;;40.85;26.95;;;7.50;99.90;;;;;;4972067;28;20122;-70
2022/03/17 01:16:12;;;;;;;36.67;25.55;;;7.40;99.90;;;;;;4972071;28;20019;-70
2022/03/17 01:18:44;;;;;;;45.42;26.20;;;7.50;99.90;;;;;;4971157;28;20035;-69
2022/03/17 01:21:13;;;;;;;37.38;24.92;;;7.40;99.90;;;;;;4955195;28;20027;-70
2022/03/17 01:23:39;;;;;;;39.33;26.17;;;7.40;99.90;;;;;;4971970;28;20066;-70
2022/03/17 01:26:04;;;;;;;40.83;26.65;;;7.30;99.90;;;;;;4972911;28;20110;-70
2022/03/17 01:28:30;;;;;;;41.38;26.08;;;7.30;99.90;;;;;;4972234;28;20031;-71
2022/03/17 01:30:56;;;;;;;39.85;26.45;;;7.30;99.90;;;;;;4972340;28;20051;-68
2022/03/17 01:33:22;;;;;;;39.33;26.55;;;7.40;99.90;;;;;;4972100;28;20041;-71
2022/03/17 01:35:48;;;;;;;40.13;25.92;;;7.40;99.90;;;;;;4971280;28;20056;-70
2022/03/17 01:38:21;;;;;;;41.13;27.33;;;7.40;99.90;;;;;;4972180;28;20054;-69
2022/03/17 01:40:47;;;;;;;;;;;7.50;99.90;;;;;;4955189;28;20069;-68
2022/03/17 01:43:18;;;;;;;38.15;25.92;;;7.60;99.90;;;;;;4971889;28;20388;-70
2022/03/17 01:45:44;;;;;;;35.70;25.23;;;7.60;99.90;;;;;;4970593;28;20046;-70
2022/03/17 01:48:12;;;;;;;35.30;23.45;;;7.60;99.90;;;;;;4968120;28;20023;-69
2022/03/17 01:50:38;;;;;;;35.92;23.67;;;7.70;99.90;;;;;;4962545;28;20139;-70
2022/03/17 01:53:04;;;;;;;33.45;22.90;;;7.70;99.90;;;;;;4952233;29;20124;-69
2022/03/17 01:55:39;;;;;;;34.53;21.90;;;7.50;99.90;;;;;;4952925;29;20031;-71
2022/03/17 01:58:07;;;;;;;33.42;22.52;;;7.60;99.90;;;;;;4935141;29;20090;-70
2022/03/17 02:01:01;;;;;;;34.50;22.98;;;7.60;99.90;;;;;;4952921;29;20035;-70
2022/03/17 02:03:33;;;;;;;43.80;26.00;;;7.60;99.90;;;;;;4952693;28;20143;-71
2022/03/17 02:05:59;;;;;;;43.77;27.10;;;7.60;99.90;;;;;;4952755;28;20070;-67
2022/03/17 02:08:31;;;;;;;35.70;20.00;;;7.60;99.90;;;;;;4953026;29;20143;-70
2022/03/17 02:13:43;;;;;;;35.20;23.10;;;7.50;99.90;;;;;;4952275;28;20525;-68
2022/03/17 02:16:16;;;;;;;32.92;20.38;;;7.60;99.90;;;;;;4952815;28;20051;-70
2022/03/17 02:18:46;;;;;;;31.02;20.10;;;7.60;99.90;;;;;;4935644;29;20063;-69
2022/03/17 02:21:17;;;;;;;30.88;20.65;;;7.50;99.90;;;;;;4953067;28;20113;-69
2022/03/17 02:26:31;;;;;;;41.47;26.45;;;7.30;99.90;;;;;;4952395;29;20039;-70
2022/03/17 02:28:58;;;;;;;36.60;22.70;;;7.30;99.90;;;;;;4952342;29;20383;-70
2022/03/17 02:31:25;;;;;;;39.92;24.70;;;7.20;99.90;;;;;;4952598;28;20043;-69
2022/03/17 02:33:51;;;;;;;33.95;21.02;;;7.20;99.90;;;;;;4952566;28;20486;-68
2022/03/17 02:36:21;;;;;;;30.60;21.05;;;7.20;99.90;;;;;;4952426;28;20031;-69
2022/03/17 02:38:50;;;;;;;31.65;20.33;;;7.20;99.90;;;;;;4950978;28;20015;-69
2022/03/17 02:41:24;;;;;;;29.25;19.73;;;7.30;99.90;;;;;;4935263;29;20046;-69
2022/03/17 02:43:53;;;;;;;33.38;19.50;;;7.20;99.90;;;;;;4963220;28;20035;-67
2022/03/17 02:46:22;;;;;;;33.53;19.90;;;7.20;99.90;;;;;;4991594;28;20049;-67
2022/03/17 02:48:48;;;;;;;70.55;40.40;;;7.00;99.90;;;;;;4972207;28;20469;-69
2022/03/17 02:51:17;;;;;;;56.55;35.80;;;7.00;99.90;;;;;;4961376;28;20122;-69
2022/03/17 02:53:43;;;;;;;53.78;32.40;;;6.90;99.90;;;;;;4987252;28;20259;-69
2022/03/17 02:56:11;;;;;;;36.08;22.80;;;6.90;99.90;;;;;;4974341;28;20015;-66
2022/03/17 02:58:38;;;;;;;54.67;31.77;;;6.80;99.90;;;;;;4957531;28;20097;-69
2022/03/17 03:01:04;;;;;;;36.72;23.23;;;6.90;99.90;;;;;;4975152;28;20066;-68
2022/03/17 03:03:32;;;;;;;38.63;24.30;;;6.90;99.90;;;;;;4958252;28;20524;-68
2022/03/17 03:05:58;;;;;;;65.85;35.78;;;6.80;99.90;;;;;;4974923;28;20035;-70
2022/03/17 03:08:24;;;;;;;50.70;29.15;;;6.70;99.90;;;;;;4974616;28;20461;-70
2022/03/17 03:11:02;;;;;;;46.05;26.20;;;6.70;99.90;;;;;;4957743;28;20130;-67
2022/03/17 03:13:28;;;;;;;41.13;26.48;;;6.70;99.90;;;;;;4957010;28;20030;-67
2022/03/17 03:15:53;;;;;;;36.33;22.85;;;6.70;99.90;;;;;;4974786;28;20089;-67
2022/03/17 03:18:19;;;;;;;32.17;20.73;;;6.80;99.90;;;;;;4974627;28;20468;-67
2022/03/17 03:20:45;;;;;;;41.50;23.65;;;6.70;99.90;;;;;;4974787;28;20033;-70
2022/03/17 03:23:14;;;;;;;32.35;21.75;;;6.70;99.90;;;;;;4974227;28;20034;-67
2022/03/17 03:25:41;;;;;;;31.75;20.75;;;6.70;99.90;;;;;;4972555;28;20057;-68
2022/03/17 03:28:10;;;;;;;35.53;22.75;;;6.80;99.90;;;;;;4974297;28;20027;-69
2022/03/17 03:30:36;;;;;;;37.08;24.33;;;6.80;99.90;;;;;;4974034;28;20079;-69
2022/03/17 03:33:14;;;;;;;35.35;23.30;;;6.90;99.90;;;;;;4974356;28;20035;-67
2022/03/17 03:38:38;;;;;;;35.35;23.00;;;6.90;99.90;;;;;;4969857;28;20378;-67
2022/03/17 03:41:09;;;;;;;37.25;23.92;;;7.00;99.90;;;;;;4953949;28;20039;-67
2022/03/17 03:43:38;;;;;;;36.17;23.42;;;6.90;99.90;;;;;;4952199;28;20412;-69
2022/03/17 03:46:03;;;;;;;31.58;21.23;;;6.90;99.90;;;;;;4973975;28;20122;-68
2022/03/17 03:48:31;;;;;;;32.88;20.35;;;6.90;99.90;;;;;;4973693;28;20113;-69
2022/03/17 03:51:21;;;;;;;31.60;20.75;;;6.90;99.90;;;;;;4973910;28;20397;-69
2022/03/17 03:56:34;;;;;;;32.15;20.45;;;7.10;99.90;;;;;;4973426;28;20041;-69
2022/03/17 03:59:02;;;;;;;36.95;24.25;;;7.10;99.90;;;;;;4955786;28;20070;-69
2022/03/17 04:01:28;;;;;;;33.40;22.98;;;7.20;99.90;;;;;;4973141;28;20035;-70
2022/03/17 04:03:55;;;;;;;34.42;23.38;;;7.10;99.90;;;;;;4973416;28;20051;-68
2022/03/17 04:06:21;;;;;;;36.08;23.45;;;7.10;99.90;;;;;;4972837;28;20103;-70
2022/03/17 04:08:49;;;;;;;35.67;23.65;;;7.10;99.90;;;;;;4973620;28;20844;-69
2022/03/17 04:11:16;;;;;;;35.58;23.58;;;7.10;99.90;;;;;;4969241;28;20038;-70
2022/03/17 04:13:42;;;;;;;36.70;22.63;;;7.10;99.90;;;;;;4956616;28;20038;-69
2022/03/17 04:16:09;;;;;;;34.35;23.50;;;7.10;99.90;;;;;;4964908;28;20032;-70
2022/03/17 04:18:38;;;;;;;35.72;22.25;;;7.10;99.90;;;;;;4954497;29;20031;-69
2022/03/17 04:21:04;;;;;;;36.13;23.15;;;7.10;99.90;;;;;;4932160;29;20035;-70
2022/03/17 04:23:30;;;;;;;29.50;20.42;;;7.20;99.90;;;;;;4954143;29;20039;-70
2022/03/17 04:25:56;;;;;;;35.92;23.27;;;7.10;99.90;;;;;;4970799;28;20114;-70
2022/03/17 04:28:24;;;;;;;34.60;21.77;;;7.10;99.90;;;;;;4973336;28;20034;-69
2022/03/17 04:30:50;;;;;;;35.25;23.63;;;7.10;99.90;;;;;;4972846;28;20141;-70
2022/03/17 04:33:16;;;;;;;35.60;23.20;;;7.10;99.90;;;;;;4973640;28;20093;-70
2022/03/17 04:35:50;;;;;;;38.45;23.13;;;7.10;99.90;;;;;;4973068;28;20062;-69
2022/03/17 04:38:22;;;;;;;37.83;25.02;;;7.10;99.90;;;;;;4955831;28;20126;-70
2022/03/17 04:40:49;;;;;;;39.22;24.50;;;7.10;99.90;;;;;;4972808;28;20026;-68
2022/03/17 04:43:27;;;;;;;41.15;25.88;;;7.20;99.90;;;;;;4972391;28;20503;-69
2022/03/17 04:45:53;;;;;;;38.22;24.23;;;7.10;99.90;;;;;;4955054;28;20105;-68
2022/03/17 04:48:24;;;;;;;41.42;27.73;;;7.20;99.90;;;;;;4972988;28;20050;-69
2022/03/17 04:50:53;;;;;;;36.17;23.80;;;7.20;99.90;;;;;;4955481;28;20030;-69
2022/03/17 04:53:29;;;;;;;36.33;24.17;;;7.20;99.90;;;;;;4972566;28;20468;-69
2022/03/17 04:56:18;;;;;;;38.30;24.58;;;7.30;99.90;;;;;;4972461;28;20069;-68
2022/03/17 04:58:45;;;;;;;47.33;26.70;;;7.20;99.90;;;;;;4903025;29;20036;-70
2022/03/17 05:01:13;;;;;;;46.10;28.95;;;7.20;99.90;;;;;;4898747;29;20029;-70
2022/03/17 05:03:39;;;;;;;40.08;25.83;;;7.10;99.90;;;;;;4907912;29;20056;-69
2022/03/17 05:06:05;;;;;;;38.30;25.67;;;6.90;99.90;;;;;;4911946;29;20039;-72
2022/03/17 05:08:40;;;;;;;38.60;25.20;;;7.00;99.90;;;;;;4912061;29;20080;-73
2022/03/17 05:11:08;;;;;;;45.05;27.50;;;6.90;99.90;;;;;;4912064;29;20422;-70
2022/03/17 05:13:39;;;;;;;40.03;25.60;;;6.90;99.90;;;;;;4893898;29;20051;-69
2022/03/17 05:16:09;;;;;;;42.38;27.27;;;6.90;99.90;;;;;;4903370;29;20041;-70
2022/03/17 05:18:36;;;;;;;47.35;27.50;;;7.00;99.90;;;;;;4891672;29;20629;-69
2022/03/17 05:21:15;;;;;;;41.80;27.67;;;7.00;99.90;;;;;;4912085;29;20032;-68
2022/03/17 05:23:55;;;;;;;54.70;33.63;;;7.00;99.90;;;;;;4907134;29;20056;-70
2022/03/17 05:26:21;;;;;;;49.30;30.38;;;7.00;99.90;;;;;;4895312;29;20115;-68
2022/03/17 05:28:49;;;;;;;45.35;27.67;;;7.10;99.90;;;;;;4917763;29;20124;-70
2022/03/17 05:31:18;;;;;;;56.83;35.83;;;7.10;99.90;;;;;;4896299;29;20138;-70
2022/03/17 05:33:47;;;;;;;62.55;39.10;;;7.20;99.90;;;;;;4912761;29;20142;-70
2022/03/17 05:36:13;;;;;;;51.85;35.78;;;7.20;99.90;;;;;;4934921;28;20603;-71
2022/03/17 05:38:41;;;;;;;44.10;29.00;;;7.20;99.90;;;;;;4971598;28;20035;-71
2022/03/17 05:41:11;;;;;;;42.35;27.88;;;7.30;99.90;;;;;;4969809;28;20392;-69
2022/03/17 05:43:37;;;;;;;42.55;28.60;;;7.30;99.90;;;;;;4963008;28;20039;-69
2022/03/17 05:46:03;;;;;;;48.83;28.63;;;7.10;99.90;;;;;;4971853;28;20114;-69
2022/03/17 05:48:29;;;;;;;61.40;39.90;;;7.10;99.90;;;;;;4954419;28;20054;-70
2022/03/17 05:50:55;;;;;;;53.28;36.85;;;7.00;99.90;;;;;;4971722;28;20035;-71
2022/03/17 05:53:31;;;;;;;72.88;47.72;;;6.80;99.90;;;;;;4971612;28;20113;-71
2022/03/17 05:55:57;;;;;;;63.75;40.85;;;6.80;99.90;;;;;;4954713;28;20043;-70
2022/03/17 05:58:23;;;;;;;53.03;33.10;;;6.80;99.90;;;;;;4971008;28;20465;-69
2022/03/17 06:00:49;;;;;;;50.58;30.17;;;6.90;99.90;;;;;;4971127;28;20035;-70
2022/03/17 06:03:21;;;;;;;48.22;34.58;;;6.90;99.90;;;;;;4971932;28;20038;-70
2022/03/17 06:05:51;;;;;;;51.33;31.08;;;7.00;99.90;;;;;;4953894;28;20027;-70
2022/03/17 06:08:17;;;;;;;51.78;32.22;;;7.10;99.90;;;;;;4971158;28;20054;-71
2022/03/17 06:10:48;;;;;;;44.55;27.67;;;7.20;99.90;;;;;;4971897;28;20031;-71
2022/03/17 06:13:18;;;;;;;44.80;27.70;;;7.30;99.90;;;;;;4970597;28;20023;-72
2022/03/17 06:15:47;;;;;;;43.22;27.27;;;7.40;99.90;;;;;;4969691;28;20085;-71
2022/03/17 06:18:13;;;;;;;38.95;26.27;;;7.50;99.90;;;;;;4944509;29;20043;-70
2022/03/17 06:20:39;;;;;;;38.60;25.80;;;7.50;99.90;;;;;;4966009;28;20018;-71
2022/03/17 06:23:06;;;;;;;37.92;25.52;;;7.60;99.90;;;;;;4969685;28;20325;-70
2022/03/17 06:25:35;;;;;;;37.40;24.67;;;7.60;99.90;;;;;;4971365;28;20639;-71
2022/03/17 06:28:03;;;;;;;37.97;24.98;;;7.70;99.90;;;;;;4962213;28;20118;-72
2022/03/17 06:30:35;;;;;;;38.13;24.65;;;7.50;99.90;;;;;;4966879;28;20106;-71
2022/03/17 06:33:01;;;;;;;40.83;25.55;;;7.50;99.90;;;;;;4975392;28;20022;-71
2022/03/17 06:35:28;;;;;;;39.08;24.70;;;7.60;99.90;;;;;;4974927;28;20033;-71
2022/03/17 06:37:59;;;;;;;47.78;27.80;;;7.60;99.90;;;;;;4974551;28;20027;-71
2022/03/17 06:40:26;;;;;;;46.80;30.73;;;7.60;99.90;;;;;;4974528;28;20057;-71
2022/03/17 06:42:53;;;;;;;48.88;30.65;;;7.70;99.90;;;;;;4974288;28;20039;-72
2022/03/17 06:45:19;;;;;;;53.17;31.98;;;7.60;99.90;;;;;;4974834;28;20023;-71
2022/03/17 06:47:45;;;;;;;43.58;28.42;;;7.60;99.90;;;;;;4974749;28;20026;-72
2022/03/17 06:50:13;;;;;;;46.47;28.45;;;7.60;99.90;;;;;;4973818;28;20102;-71
2022/03/17 06:52:39;;;;;;;47.88;28.45;;;7.70;99.90;;;;;;4974626;28;20026;-71
2022/03/17 06:55:06;;;;;;;49.33;29.13;;;7.70;99.90;;;;;;4974708;28;20109;-72
2022/03/17 06:57:32;;;;;;;47.13;30.10;;;7.80;99.90;;;;;;4957267;28;20050;-71
2022/03/17 07:00:05;;;;;;;42.97;27.02;;;7.90;99.90;;;;;;4974239;28;20070;-70
2022/03/17 07:02:32;;;;;;;42.08;27.42;;;8.00;99.90;;;;;;4956876;28;20050;-70
2022/03/17 07:04:58;;;;;;;38.60;26.90;;;8.10;99.90;;;;;;4974788;28;20045;-70
2022/03/17 07:07:27;;;;;;;42.40;27.85;;;8.10;99.90;;;;;;4974249;28;20027;-70
2022/03/17 07:09:55;;;;;;;46.35;28.65;;;8.20;99.90;;;;;;4953299;29;20035;-69
2022/03/17 07:12:22;;;;;;;43.60;28.73;;;8.10;99.90;;;;;;4972661;28;20456;-70
2022/03/17 07:14:48;;;;;;;37.55;25.08;;;8.10;99.90;;;;;;4974005;28;20027;-70
2022/03/17 07:17:19;;;;;;;38.45;26.40;;;8.10;99.90;;;;;;4974006;28;20123;-70
2022/03/17 07:22:29;;;;;;;40.78;27.58;;;7.80;99.90;;;;;;4956044;28;20050;-70
2022/03/17 07:24:55;;;;;;;43.45;29.30;;;7.70;99.90;;;;;;4974152;28;20030;-70
2022/03/17 07:27:24;;;;;;;47.72;29.42;;;7.70;99.90;;;;;;4974444;28;20496;-69
2022/03/17 07:29:50;;;;;;;43.67;27.63;;;7.70;99.90;;;;;;4973229;28;20078;-71
2022/03/17 07:32:18;;;;;;;50.20;30.92;;;7.80;99.90;;;;;;4973502;28;20073;-70
2022/03/17 07:34:49;;;;;;;41.45;26.00;;;7.90;99.90;;;;;;4973631;28;20030;-68
2022/03/17 07:37:15;;;;;;;38.50;25.23;;;7.60;99.90;;;;;;4974097;28;20027;-69
2022/03/17 07:39:44;;;;;;;40.70;25.08;;;7.70;99.90;;;;;;4973266;28;20105;-70
2022/03/17 07:42:11;;;;;;;37.92;22.58;;;7.70;99.90;;;;;;4972373;28;20026;-71
2022/03/17 07:44:58;;;;;;;38.78;23.88;;;7.90;99.90;;;;;;4979999;28;20085;-72
2022/03/17 07:48:00;;;;;;;39.13;24.23;;;7.60;99.90;;;;;;4873440;29;20053;-70
2022/03/17 07:50:26;;;;;;;39.55;24.92;;;7.70;99.90;;;;;;4851087;29;20038;-68
2022/03/17 07:53:01;;;;;;;39.67;25.40;;;7.90;99.90;;;;;;4857633;29;20238;-71
2022/03/17 07:55:27;;;;;;;36.28;23.15;;;7.70;99.90;;;;;;4858779;29;20048;-72
2022/03/17 07:58:00;;;;;;;36.20;23.60;;;7.80;99.90;;;;;;4857476;29;20029;-70
2022/03/17 08:00:35;;;;;;;38.72;25.70;;;7.90;99.90;;;;;;4859327;29;20041;-73
2022/03/17 08:03:15;;;;;;;46.28;30.75;;;8.00;99.90;;;;;;4861305;29;20461;-70
2022/03/17 08:05:46;;;;;;;45.67;30.83;;;8.10;99.90;;;;;;4841685;29;20611;-73
2022/03/17 08:08:13;;;;;;;35.50;23.98;;;8.10;99.90;;;;;;4865211;29;20037;-72
2022/03/17 08:10:47;;;;;;;37.63;23.92;;;8.00;99.90;;;;;;4872592;29;20041;-73
2022/03/17 08:13:25;;;;;;;42.15;25.95;;;7.90;99.90;;;;;;4859469;29;20037;-71
2022/03/17 08:15:52;;;;;;;41.03;25.13;;;8.00;99.90;;;;;;4857280;29;20080;-72
2022/03/17 08:18:18;;;;;;;45.03;26.15;;;8.00;99.90;;;;;;4870140;29;20032;-70
2022/03/17 08:20:44;;;;;;;38.83;22.85;;;8.00;99.90;;;;;;4862901;29;20033;-72
2022/03/17 08:23:10;;;;;;;41.22;26.63;;;8.10;99.90;;;;;;4968971;28;20408;-67
2022/03/17 08:25:36;;;;;;;37.92;25.10;;;8.20;99.90;;;;;;4971619;28;20499;-73
2022/03/17 08:28:04;;;;;;;41.53;25.20;;;8.20;99.90;;;;;;4952736;28;20557;-71
2022/03/17 08:30:33;;;;;;;42.63;28.55;;;8.30;99.90;;;;;;4948955;29;20110;-72
2022/03/17 08:32:59;;;;;;;42.10;26.73;;;8.30;99.90;;;;;;4953098;29;20042;-72
2022/03/17 08:35:27;;;;;;;44.00;30.73;;;8.30;99.90;;;;;;4953838;29;20031;-73
2022/03/17 08:37:54;;;;;;;43.63;27.10;;;8.10;99.90;;;;;;4953354;29;20112;-72
2022/03/17 08:40:43;;;;;;;47.95;29.75;;;8.20;99.90;;;;;;4979518;28;20022;-70
2022/03/17 08:43:10;;;;;;;49.10;29.27;;;8.30;99.90;;;;;;4955616;28;20042;-70
2022/03/17 08:51:13;;;;;;;42.75;26.17;;;8.30;99.90;;;;;;4955173;28;20217;-69
2022/03/17 08:53:39;;;;;;;41.58;27.00;;;8.30;99.90;;;;;;4965538;28;20034;-67
2022/03/17 08:56:06;;;;;;;48.40;26.48;;;8.40;99.90;;;;;;4955572;28;20085;-70
2022/03/17 08:58:34;;;;;;;44.70;26.17;;;8.50;99.90;;;;;;4955461;28;20042;-68
2022/03/17 09:01:05;;;;;;;39.30;26.38;;;8.60;99.90;;;;;;4955627;28;20034;-69
2022/03/17 09:03:36;;;;;;;40.20;25.90;;;8.70;99.90;;;;;;4935130;29;20055;-70
2022/03/17 09:06:02;;;;;;;44.78;25.90;;;8.50;99.90;;;;;;4967161;28;20379;-70
2022/03/17 09:08:29;;;;;;;43.50;25.90;;;8.40;99.90;;;;;;4976287;28;20032;-69
2022/03/17 09:10:56;;;;;;;43.13;26.88;;;8.60;99.90;;;;;;4980387;28;20062;-70
2022/03/17 09:13:25;;;;;;;36.00;23.10;;;8.60;99.90;;;;;;4972234;28;20034;-69
2022/03/17 09:15:53;;;;;;;40.85;27.67;;;8.70;99.90;;;;;;4971760;28;20070;-69
2022/03/17 09:18:21;;;;;;;48.92;27.98;;;8.70;99.90;;;;;;4972449;28;20440;-69
2022/03/17 09:20:48;;;;;;;53.25;32.90;;;8.80;99.90;;;;;;4971375;28;20029;-70
2022/03/17 09:23:14;;;;;;;41.55;23.73;;;8.70;99.90;;;;;;4971731;28;20429;-69
2022/03/17 09:25:45;;;;;;;45.47;27.42;;;8.50;99.90;;;;;;4971685;28;20026;-70
2022/03/17 09:28:12;;;;;;;47.10;28.80;;;8.50;99.90;;;;;;4970558;28;20412;-69
2022/03/17 09:30:38;;;;;;;41.20;27.50;;;8.40;99.90;;;;;;4971659;28;20074;-70
2022/03/17 09:33:05;;;;;;;54.83;29.75;;;8.40;99.90;;;;;;4969068;28;20152;-67
2022/03/17 09:35:31;;;;;;;43.38;25.77;;;8.40;99.90;;;;;;4950422;28;20107;-67
2022/03/17 09:37:57;;;;;;;40.78;26.40;;;8.50;99.90;;;;;;4969916;28;20481;-69
2022/03/17 09:40:23;;;;;;;44.33;25.77;;;8.60;99.90;;;;;;4967155;28;20027;-69
2022/03/17 09:43:18;;;;;;;39.78;24.73;;;8.60;99.90;;;;;;4952529;29;20482;-69
2022/03/17 09:45:39;;;;;;;39.40;24.63;;;8.70;99.90;;;;;;4964936;28;20438;-68
2022/03/17 09:48:07;;;;;;;47.65;27.30;;;8.90;99.90;;;;;;4954689;28;20540;-67
2022/03/17 09:50:35;;;;;;;45.10;26.55;;;9.00;99.90;;;;;;4971431;28;20030;-68
2022/03/17 09:53:01;;;;;;;43.17;24.15;;;9.10;99.90;;;;;;4953334;28;20042;-70
2022/03/17 09:55:27;;;;;;;43.42;24.80;;;9.20;99.90;;;;;;4961218;28;20027;-69
2022/03/17 09:57:53;;;;;;;59.88;34.55;;;9.20;99.90;;;;;;4971313;28;20289;-68
2022/03/17 10:00:19;;;;;;;63.13;36.22;;;9.40;99.90;;;;;;4970747;28;20093;-69
2022/03/17 10:02:44;;;;;;;42.45;24.45;;;9.40;99.90;;;;;;4970992;28;20027;-69
2022/03/17 10:05:11;;;;;;;42.40;24.30;;;9.20;99.90;;;;;;4977541;28;20034;-68
2022/03/17 10:07:47;;;;;;;42.78;25.40;;;9.30;99.90;;;;;;4972009;28;20033;-68
2022/03/17 10:10:13;;;;;;;43.28;23.70;;;9.30;99.90;;;;;;4953993;28;20113;-70
2022/03/17 10:12:39;;;;;;;38.45;23.10;;;9.40;99.90;;;;;;4960914;28;20106;-66
2022/03/17 10:15:17;;;;;;;38.83;23.00;;;9.20;99.90;;;;;;4970018;28;20060;-70
2022/03/17 10:17:43;;;;;;;36.55;22.95;;;9.00;99.90;;;;;;4967633;28;20110;-70
2022/03/17 10:20:22;;;;;;;37.15;23.48;;;9.20;99.90;;;;;;4974029;28;20117;-69
2022/03/17 10:23:01;;;;;;;39.95;22.13;;;9.50;99.90;;;;;;4955785;28;20046;-70
2022/03/17 10:25:32;;;;;;;48.42;29.13;;;9.70;99.90;;;;;;4948481;29;20440;-70
2022/03/17 10:27:59;;;;;;;46.25;27.23;;;9.90;99.90;;;;;;4965110;28;20026;-69
2022/03/17 10:30:33;;;;;;;51.83;30.38;;;10.40;99.90;;;;;;4975206;28;20085;-67
2022/03/17 10:33:30;;;;;;;42.08;25.90;;;10.50;99.90;;;;;;4966644;28;20122;-69
2022/03/17 10:36:14;;;;;;;44.42;27.35;;;10.60;99.90;;;;;;4940082;28;20035;-70
2022/03/17 10:38:42;;;;;;;54.45;32.88;;;10.80;99.90;;;;;;4957855;28;20481;-69
2022/03/17 10:41:19;;;;;;;44.47;27.60;;;10.80;99.90;;;;;;4972568;28;20059;-69
2022/03/17 10:44:00;;;;;;;40.80;25.00;;;10.80;99.90;;;;;;4949295;28;20042;-71
2022/03/17 10:46:29;;;;;;;35.80;22.02;;;10.80;99.90;;;;;;4957170;28;20555;-68
2022/03/17 10:49:02;;;;;;;35.80;23.25;;;10.90;99.90;;;;;;4938354;29;20062;-70
2022/03/17 10:51:35;;;;;;;35.13;24.40;;;10.80;99.30;;;;;;4957906;28;20028;-68
2022/03/17 10:54:26;;;;;;;39.28;22.67;;;10.60;99.90;;;;;;4971032;28;20030;-69
2022/03/17 10:57:11;;;;;;;36.20;19.55;;;10.90;99.90;;;;;;4957077;28;20023;-69
2022/03/17 10:59:43;;;;;;;35.42;22.42;;;10.70;99.90;;;;;;4973364;28;20043;-70
2022/03/17 11:02:21;;;;;;;35.75;21.92;;;10.90;99.90;;;;;;4974540;28;20042;-68
2022/03/17 11:05:05;;;;;;;34.35;21.20;;;10.60;99.90;;;;;;4956353;28;20055;-68
2022/03/17 11:07:32;;;;;;;36.22;24.05;;;10.60;99.90;;;;;;4973650;28;20022;-68
2022/03/17 11:10:07;;;;;;;30.88;19.13;;;10.80;99.90;;;;;;4973792;28;20544;-69
2022/03/17 11:12:34;;;;;;;35.85;21.02;;;10.90;99.90;;;;;;4973204;28;20046;-69
2022/03/17 11:15:03;;;;;;;31.00;19.30;;;10.90;99.90;;;;;;4955531;28;20046;-68
2022/03/17 11:17:58;;;;;;;27.95;17.80;;;11.00;99.90;;;;;;4960616;28;20481;-70
2022/03/17 11:20:30;;;;;;;34.42;20.50;;;10.80;99.90;;;;;;4966440;28;20042;-68
2022/03/17 11:23:15;;;;;;;31.15;17.48;;;10.90;99.90;;;;;;4955307;28;20548;-70
2022/03/17 11:25:55;;;;;;;32.55;18.15;;;10.70;99.50;;;;;;4955033;29;20023;-69
2022/03/17 11:28:39;;;;;;;30.08;18.27;;;10.80;99.90;;;;;;4954267;29;20119;-69
2022/03/17 11:31:23;;;;;;;31.90;19.15;;;10.70;99.90;;;;;;4965412;28;20555;-68
2022/03/17 11:34:09;;;;;;;28.60;16.20;;;10.80;99.90;;;;;;4916579;29;20454;-68
2022/03/17 11:37:25;;;;;;;37.50;20.83;;;11.10;99.90;;;;;;4931845;29;20031;-66
2022/03/17 11:39:58;;;;;;;29.13;18.48;;;11.30;99.90;;;;;;4932333;29;20078;-68
2022/03/17 11:42:36;;;;;;;34.40;21.65;;;11.50;99.30;;;;;;4932802;29;20052;-67
2022/03/17 11:45:15;;;;;;;34.22;20.85;;;11.40;97.30;;;;;;4932937;29;20055;-68
2022/03/17 11:47:48;;;;;;;35.88;21.23;;;11.60;99.30;;;;;;4933034;29;20107;-68
2022/03/17 11:50:33;;;;;;;35.63;20.30;;;11.70;99.60;;;;;;4932910;29;20032;-66
2022/03/17 11:53:04;;;;;;;30.00;18.40;;;11.10;95.20;;;;;;4932475;29;20036;-67
2022/03/17 11:55:48;;;;;;;34.67;19.70;;;11.20;97.10;;;;;;4915898;29;20071;-66
2022/03/17 11:58:31;;;;;;;48.40;30.95;;;11.50;98.10;;;;;;4932333;29;20070;-68
2022/03/17 12:01:13;;;;;;;34.25;23.52;;;11.50;97.80;;;;;;4930494;29;20040;-67
2022/03/17 12:03:46;;;;;;;36.33;22.65;;;11.60;98.30;;;;;;4912794;29;20131;-68
2022/03/17 12:06:39;;;;;;;28.75;19.48;;;11.80;99.10;;;;;;4930168;29;20034;-66
2022/03/17 12:09:38;;;;;;;41.75;24.10;;;11.70;94.60;;;;;;4949478;29;20099;-69
2022/03/17 12:12:35;;;;;;;40.42;24.52;;;11.40;95.20;;;;;;4916511;29;20086;-68
2022/03/17 12:15:37;;;;;;;45.47;28.35;;;11.10;96.00;;;;;;4934629;29;20496;-68
2022/03/17 12:18:30;;;;;;;35.53;23.38;;;10.90;96.70;;;;;;4954016;29;20373;-68
2022/03/17 12:21:56;;;;;;;28.08;16.85;;;10.50;97.90;;;;;;4953775;28;20067;-66
2022/03/17 12:24:56;;;;;;;31.42;16.73;;;10.50;98.10;;;;;;4921161;29;20050;-68
2022/03/17 12:27:39;;;;;;;27.30;17.35;;;10.60;98.30;;;;;;4925765;28;20031;-68
2022/03/17 12:30:12;;;;;;;34.88;22.77;;;10.40;98.40;;;;;;4921463;29;20035;-67
2022/03/17 12:32:39;;;;;;;36.40;22.52;;;10.30;99.90;;;;;;4931183;29;20039;-70
2022/03/17 12:35:08;;;;;;;41.58;23.27;;;10.50;99.40;;;;;;4932276;29;20140;-68
2022/03/17 12:37:35;;;;;;;31.52;20.85;;;10.50;99.00;;;;;;4950177;29;20045;-69
2022/03/17 12:40:05;;;;;;;37.25;21.83;;;10.30;99.70;;;;;;4949438;29;20036;-69
2022/03/17 12:42:52;;;;;;;36.45;20.50;;;10.40;99.70;;;;;;4948898;29;20490;-69
2022/03/17 12:45:23;;;;;;;34.03;19.05;;;10.50;99.90;;;;;;4947501;28;20035;-68
2022/03/17 12:48:00;;;;;;;40.15;24.65;;;10.50;99.90;;;;;;4957320;28;20047;-67
2022/03/17 12:50:37;;;;;;;42.10;23.67;;;10.40;98.70;;;;;;4947499;29;20163;-68
2022/03/17 12:53:09;;;;;;;37.00;23.02;;;10.30;98.80;;;;;;4970351;28;20043;-68
2022/03/17 12:55:46;;;;;;;34.92;23.45;;;10.40;99.80;;;;;;4954318;28;20031;-69
2022/03/17 12:58:30;;;;;;;;;;;;;;;;;;;;;
2022/03/17 13:01:05;;;;;;;33.42;20.92;;;10.20;99.90;;;;;;4950958;29;20098;-68
2022/03/17 13:03:43;;;;;;;32.00;20.27;;;10.20;99.90;;;;;;4955584;28;20121;-66
2022/03/17 13:09:19;;;;;;;37.35;22.13;;;10.00;99.90;;;;;;4950247;29;20065;-68
2022/03/17 13:14:52;;;;;;;32.65;21.27;;;10.00;99.90;;;;;;4950700;29;20061;-65
2022/03/17 13:18:27;;;;;;;30.23;18.27;;;9.90;99.90;;;;;;4935104;29;20058;-68
2022/03/17 13:21:21;;;;;;;44.55;27.75;;;10.00;99.90;;;;;;4910612;29;20044;-68
2022/03/17 13:24:20;;;;;;;42.47;23.95;;;10.00;99.90;;;;;;4907015;29;20465;-68